Terminal Aerodrome Forecast
Issued by NWS Twin Cities, MN

Home | Current Version | Previous Version | Graphics & Text | Print | Product List | Glossary On
Versions: 1 2 3 4 5 6 7 8 9 10 11 12 13 14 15 16 17
000
FTUS43 KMPX 072300
TAFEAU
TAF
KEAU 072332Z 0800/0824 27006KT 6SM -SHRA VCTS BKN040CB
      TEMPO 0800/0801 2SM TSRA BR OVC025CB
     FM080130 27005KT P6SM SCT070
     FM081500 30013G20KT P6SM SCT050=

USA.gov is the U.S. government's official web portal to all federal, state and local government web resources and services.